createdAt,value
2018-08-28T00:02:01.408Z,92.20
2018-08-28T00:04:30.645Z,93.40
2018-08-28T00:06:59.860Z,93.40
2018-08-28T00:09:29.080Z,94.40
2018-08-28T00:11:58.319Z,94.40
2018-08-28T00:14:27.544Z,94.20
2018-08-28T00:16:56.769Z,94.30
2018-08-28T00:19:26.336Z,93.90
2018-08-28T00:21:55.627Z,93.80
2018-08-28T00:24:24.837Z,93.70
2018-08-28T00:26:54.376Z,94.30
2018-08-28T00:29:23.924Z,94.30
2018-08-28T00:31:53.142Z,93.90
2018-08-28T00:34:22.556Z,93.40
2018-08-28T00:36:51.828Z,93.80
2018-08-28T00:39:21.058Z,95.20
2018-08-28T00:41:50.359Z,94.60
2018-08-28T00:44:19.563Z,94.90
2018-08-28T00:46:48.876Z,95.50
2018-08-28T00:49:18.153Z,95.00
2018-08-28T00:51:47.384Z,94.70
2018-08-28T00:54:16.631Z,95.30
2018-08-28T00:56:45.880Z,95.20
2018-08-28T00:59:15.077Z,95.30
2018-08-28T01:01:44.276Z,96.00
2018-08-28T01:04:13.762Z,95.80
2018-08-28T01:06:42.961Z,95.90
2018-08-28T01:09:12.172Z,96.40
2018-08-28T01:11:41.416Z,96.10
2018-08-28T01:14:10.625Z,95.40
2018-08-28T01:16:39.852Z,95.70
2018-08-28T01:19:09.092Z,95.80
2018-08-28T01:21:38.288Z,96.90
2018-08-28T01:24:07.488Z,96.70
2018-08-28T01:26:37.762Z,96.80
2018-08-28T01:29:06.960Z,97.50
2018-08-28T01:31:36.774Z,97.70
2018-08-28T01:34:06.080Z,97.90
2018-08-28T01:36:35.288Z,98.30
2018-08-28T01:39:05.349Z,98.20
2018-08-28T01:41:34.588Z,97.90
2018-08-28T01:44:03.797Z,97.80
2018-08-28T01:46:33.199Z,98.50
2018-08-28T01:49:03.004Z,98.50
2018-08-28T01:51:32.752Z,99.00
2018-08-28T01:54:01.945Z,98.70
2018-08-28T01:56:31.300Z,98.00
2018-08-28T01:59:00.520Z,99.20
2018-08-28T02:01:29.725Z,99.80
2018-08-28T02:03:58.953Z,99.60
2018-08-28T02:06:28.537Z,99.90
2018-08-28T02:08:58.108Z,99.40
2018-08-28T02:11:27.432Z,99.90
2018-08-28T02:13:56.643Z,98.80
2018-08-28T02:16:25.843Z,99.90
2018-08-28T02:18:55.111Z,98.40
2018-08-28T02:21:24.310Z,97.50
2018-08-28T02:23:53.541Z,97.50
2018-08-28T02:26:22.957Z,97.10
2018-08-28T02:28:52.155Z,97.00
2018-08-28T02:31:23.632Z,97.10
2018-08-28T02:33:54.111Z,97.00
2018-08-28T02:36:23.412Z,96.60
2018-08-28T02:38:52.624Z,97.40
2018-08-28T02:41:21.868Z,96.90
2018-08-28T02:43:51.089Z,96.70
2018-08-28T02:46:21.592Z,96.70
2018-08-28T02:48:51.052Z,98.60
2018-08-28T02:51:20.268Z,99.30
2018-08-28T02:53:49.492Z,99.40
2018-08-28T02:56:19.106Z,97.80
2018-08-28T02:58:48.403Z,97.50
2018-08-28T03:01:17.608Z,97.20
2018-08-28T03:03:47.088Z,96.80
2018-08-28T03:06:16.913Z,97.50
2018-08-28T03:08:46.155Z,97.00
2018-08-28T03:11:15.416Z,97.10
2018-08-28T03:13:44.828Z,97.30
2018-08-28T03:16:14.065Z,97.60
2018-08-28T03:18:43.692Z,99.90
2018-08-28T03:21:12.903Z,99.80
2018-08-28T03:23:42.115Z,98.80
2018-08-28T03:26:11.333Z,99.90
2018-08-28T03:28:40.546Z,99.90
2018-08-28T03:31:09.764Z,99.90
2018-08-28T03:33:39.000Z,99.90
2018-08-28T03:36:08.845Z,99.00
2018-08-28T03:38:38.041Z,98.50
2018-08-28T03:41:07.378Z,98.50
2018-08-28T03:43:36.592Z,98.50
2018-08-28T03:46:05.856Z,98.60
2018-08-28T03:48:35.080Z,99.70
2018-08-28T03:51:04.308Z,99.50
2018-08-28T03:53:33.532Z,99.90
2018-08-28T03:56:03.007Z,99.90
2018-08-28T03:58:32.228Z,99.90
2018-08-28T04:01:01.776Z,99.90
2018-08-28T04:03:31.431Z,99.90
2018-08-28T04:06:00.592Z,99.90
2018-08-28T04:08:29.856Z,99.90
2018-08-28T04:10:59.377Z,99.90
2018-08-28T04:13:28.718Z,99.90
2018-08-28T04:15:57.910Z,99.90
2018-08-28T04:18:27.140Z,99.90
2018-08-28T04:20:56.356Z,99.90
2018-08-28T04:23:25.564Z,99.90
2018-08-28T04:25:55.072Z,99.90
2018-08-28T04:28:24.480Z,99.90
2018-08-28T04:30:53.839Z,99.90
2018-08-28T04:33:23.123Z,99.90
2018-08-28T04:35:52.304Z,99.90
2018-08-28T04:38:21.744Z,99.90
2018-08-28T04:40:51.296Z,99.90
2018-08-28T04:43:20.516Z,99.90
2018-08-28T04:45:49.728Z,99.90
2018-08-28T04:48:19.120Z,99.90
2018-08-28T04:50:48.332Z,99.90
2018-08-28T04:53:17.539Z,99.90
2018-08-28T04:55:46.797Z,99.90
2018-08-28T04:58:16.017Z,99.90
2018-08-28T05:00:45.300Z,99.90
2018-08-28T05:03:14.468Z,99.90
2018-08-28T05:05:43.680Z,99.90
2018-08-28T05:08:12.918Z,99.90
2018-08-28T05:10:42.522Z,99.90
2018-08-28T05:13:11.731Z,99.90
2018-08-28T05:15:40.928Z,99.90
2018-08-28T05:18:10.164Z,99.90
2018-08-28T05:20:39.796Z,99.90
2018-08-28T05:23:09.024Z,99.90
2018-08-28T05:25:38.380Z,99.90
2018-08-28T05:28:07.634Z,99.90
2018-08-28T05:30:37.058Z,99.90
2018-08-28T05:33:06.536Z,99.90
2018-08-28T05:35:35.773Z,99.90
2018-08-28T05:38:05.590Z,99.90
2018-08-28T05:40:35.467Z,99.90
2018-08-28T05:43:04.684Z,99.90
2018-08-28T05:45:33.897Z,99.90
2018-08-28T05:48:03.144Z,99.90
2018-08-28T05:50:32.340Z,99.90
2018-08-28T05:53:01.568Z,99.90
2018-08-28T05:55:31.179Z,99.90
2018-08-28T05:58:00.582Z,99.90
2018-08-28T06:00:29.772Z,99.90
2018-08-28T06:02:59.091Z,99.90
2018-08-28T06:05:28.273Z,99.90
2018-08-28T06:07:57.479Z,99.90
2018-08-28T06:10:26.713Z,99.90
2018-08-28T06:12:58.268Z,99.80
2018-08-28T06:15:27.664Z,99.50
2018-08-28T06:17:56.900Z,98.90
2018-08-28T06:20:26.152Z,98.80
2018-08-28T06:22:55.429Z,98.70
2018-08-28T06:25:24.606Z,98.50
2018-08-28T06:27:53.817Z,98.20
2018-08-28T06:30:23.150Z,97.90
2018-08-28T06:32:52.588Z,97.50
2018-08-28T06:35:21.940Z,97.50
2018-08-28T06:37:51.224Z,96.70
2018-08-28T06:40:20.468Z,96.40
2018-08-28T06:42:50.081Z,96.30
2018-08-28T06:45:19.315Z,96.00
2018-08-28T06:47:49.012Z,95.90
2018-08-28T06:50:18.296Z,95.90
2018-08-28T06:52:47.524Z,95.70
2018-08-28T06:55:16.753Z,95.70
2018-08-28T06:57:45.976Z,95.40
2018-08-28T07:00:15.748Z,95.40
2018-08-28T07:02:44.958Z,95.40
2018-08-28T07:05:14.236Z,95.40
2018-08-28T07:07:43.608Z,95.60
2018-08-28T07:10:13.069Z,95.80
2018-08-28T07:12:42.244Z,95.50
2018-08-28T07:15:11.510Z,95.00
2018-08-28T07:17:40.721Z,94.80
2018-08-28T07:20:09.984Z,94.70
2018-08-28T07:22:39.456Z,94.90
2018-08-28T07:25:08.877Z,94.80
2018-08-28T07:27:38.113Z,94.40
2018-08-28T07:30:07.713Z,94.20
2018-08-28T07:32:36.945Z,94.30
2018-08-28T07:35:06.433Z,93.90
2018-08-28T07:37:35.912Z,94.30
2018-08-28T07:40:05.643Z,93.90
2018-08-28T07:42:34.871Z,93.60
2018-08-28T07:45:05.021Z,92.80
2018-08-28T07:47:34.678Z,92.70
2018-08-28T07:50:03.947Z,93.10
2018-08-28T07:52:33.195Z,93.30
2018-08-28T07:55:02.434Z,93.30
2018-08-28T07:57:31.660Z,93.10
2018-08-28T08:00:00.993Z,93.20
2018-08-28T08:02:30.174Z,93.00
2018-08-28T08:04:59.369Z,93.00
2018-08-28T08:07:28.833Z,92.80
2018-08-28T08:09:58.034Z,91.70
2018-08-28T08:12:27.249Z,90.90
2018-08-28T08:14:56.460Z,90.30
2018-08-28T08:17:25.689Z,90.50
2018-08-28T08:19:54.897Z,91.40
2018-08-28T08:22:24.236Z,91.70
2018-08-28T08:24:53.489Z,89.60
2018-08-28T08:27:22.820Z,87.10
2018-08-28T08:29:52.115Z,87.30
2018-08-28T08:32:21.328Z,88.10
2018-08-28T08:34:50.553Z,87.90
2018-08-28T08:37:19.835Z,84.20
2018-08-28T08:39:49.068Z,83.40
2018-08-28T08:42:18.300Z,85.70
2018-08-28T08:44:47.526Z,82.20
2018-08-28T08:47:17.003Z,82.30
2018-08-28T08:49:46.208Z,79.40
2018-08-28T08:52:15.829Z,78.00
2018-08-28T08:54:45.072Z,75.60
2018-08-28T08:57:14.249Z,72.00
2018-08-28T08:59:43.495Z,74.60
2018-08-28T09:02:12.729Z,73.10
2018-08-28T09:04:41.938Z,67.80
2018-08-28T09:07:11.171Z,74.10
2018-08-28T09:09:40.426Z,73.40
2018-08-28T09:12:09.671Z,73.10
2018-08-28T09:14:39.225Z,73.40
2018-08-28T09:17:08.452Z,73.70
2018-08-28T09:19:37.688Z,71.20
2018-08-28T09:22:06.944Z,68.20
2018-08-28T09:24:36.296Z,71.20
2018-08-28T09:27:05.672Z,71.30
2018-08-28T09:29:34.938Z,69.90
2018-08-28T09:32:04.152Z,71.20
2018-08-28T09:34:33.356Z,65.10
2018-08-28T09:37:02.933Z,64.80
2018-08-28T09:39:32.193Z,65.80
2018-08-28T09:42:01.392Z,63.40
2018-08-28T09:44:30.728Z,60.50
2018-08-28T09:46:59.938Z,62.90
2018-08-28T09:49:29.508Z,63.60
2018-08-28T09:51:58.759Z,63.50
2018-08-28T09:54:27.967Z,66.20
2018-08-28T09:56:57.308Z,68.10
2018-08-28T09:59:26.949Z,66.80
2018-08-28T10:01:56.149Z,64.50
2018-08-28T10:04:25.344Z,64.30
2018-08-28T10:06:54.596Z,59.70
2018-08-28T10:09:29.120Z,58.60
2018-08-28T10:11:58.353Z,59.90
2018-08-28T10:14:27.564Z,62.00
2018-08-28T10:16:56.784Z,58.60
2018-08-28T10:19:26.264Z,58.80
2018-08-28T10:21:55.645Z,59.30
2018-08-28T10:24:24.845Z,60.40
2018-08-28T10:26:54.256Z,58.30
2018-08-28T10:29:23.454Z,59.60
2018-08-28T10:31:52.653Z,58.90
2018-08-28T10:34:21.877Z,61.00
2018-08-28T10:36:51.183Z,60.70
2018-08-28T10:39:20.380Z,62.00
2018-08-28T10:41:49.984Z,56.30
2018-08-28T10:44:19.182Z,56.60
2018-08-28T10:46:48.558Z,58.30
2018-08-28T10:49:18.000Z,60.50
2018-08-28T10:51:47.684Z,56.10
2018-08-28T10:54:16.892Z,48.40
2018-08-28T10:56:46.807Z,56.80
2018-08-28T10:59:16.011Z,55.90
2018-08-28T11:01:45.222Z,48.50
2018-08-28T11:04:14.537Z,47.70
2018-08-28T11:06:43.966Z,45.90
2018-08-28T11:09:13.160Z,47.70
2018-08-28T11:11:42.712Z,43.10
2018-08-28T11:14:11.955Z,41.00
2018-08-28T11:16:41.164Z,42.70
2018-08-28T11:19:10.381Z,42.60
2018-08-28T11:21:39.585Z,40.20
2018-08-28T11:24:08.917Z,41.60
2018-08-28T11:26:38.616Z,43.00
2018-08-28T11:29:07.845Z,35.20
2018-08-28T11:31:37.054Z,39.90
2018-08-28T11:34:06.418Z,40.90
2018-08-28T11:36:35.940Z,36.30
2018-08-28T11:39:05.883Z,32.40
2018-08-28T11:41:35.113Z,35.90
2018-08-28T11:44:04.352Z,32.90
2018-08-28T11:46:33.821Z,36.90
2018-08-28T11:49:03.297Z,38.30
2018-08-28T11:51:32.636Z,37.40
2018-08-28T11:54:02.374Z,36.20
2018-08-28T11:56:31.629Z,33.50
2018-08-28T11:59:00.853Z,38.50
2018-08-28T12:01:30.059Z,35.20
2018-08-28T12:03:59.289Z,35.10
2018-08-28T12:06:28.520Z,35.10
2018-08-28T12:08:57.729Z,32.50
2018-08-28T12:11:27.005Z,28.40
2018-08-28T12:13:56.209Z,30.90
2018-08-28T12:16:25.408Z,33.70
2018-08-28T12:18:54.648Z,32.40
2018-08-28T12:21:23.854Z,29.20
2018-08-28T12:23:53.068Z,30.00
2018-08-28T12:26:24.393Z,28.20
2018-08-28T12:28:53.744Z,29.90
2018-08-28T12:31:22.932Z,28.80
2018-08-28T12:33:52.257Z,28.00
2018-08-28T12:36:22.816Z,27.60
2018-08-28T12:38:52.088Z,28.40
2018-08-28T12:41:21.449Z,26.90
2018-08-28T12:43:50.686Z,29.90
2018-08-28T12:46:19.889Z,29.10
2018-08-28T12:48:49.112Z,28.20
2018-08-28T12:51:18.439Z,29.20
2018-08-28T12:53:47.900Z,27.50
2018-08-28T12:56:17.633Z,28.20
2018-08-28T12:58:46.848Z,26.70
2018-08-28T13:01:16.060Z,28.20
2018-08-28T13:03:45.292Z,26.10
2018-08-28T13:06:14.547Z,28.40
2018-08-28T13:08:43.769Z,25.80
2018-08-28T13:11:13.001Z,28.30
2018-08-28T13:13:42.221Z,26.40
2018-08-28T13:16:11.554Z,27.10
2018-08-28T13:18:41.165Z,26.60
2018-08-28T13:21:10.362Z,26.20
2018-08-28T13:23:39.561Z,26.40
2018-08-28T13:26:09.051Z,25.70
2018-08-28T13:28:38.062Z,24.40
2018-08-28T13:31:08.331Z,26.60
2018-08-28T13:33:38.965Z,25.90
2018-08-28T13:36:09.404Z,23.20
2018-08-28T13:38:38.683Z,25.60
2018-08-28T13:41:09.010Z,26.80
2018-08-28T13:43:38.222Z,25.30
2018-08-28T13:46:07.470Z,23.40
2018-08-28T13:48:36.742Z,23.60
2018-08-28T13:51:06.219Z,23.50
2018-08-28T13:53:35.505Z,24.60
2018-08-28T13:56:04.724Z,26.80
2018-08-28T13:58:38.300Z,25.80
2018-08-28T14:01:07.857Z,23.60
2018-08-28T14:03:37.216Z,24.40
2018-08-28T14:06:06.560Z,24.10
2018-08-28T14:08:35.840Z,22.00
2018-08-28T14:11:05.402Z,24.90
2018-08-28T14:13:34.589Z,23.90
2018-08-28T14:16:04.092Z,24.60
2018-08-28T14:18:33.294Z,23.10
2018-08-28T14:21:02.698Z,22.70
2018-08-28T14:23:32.037Z,24.10
2018-08-28T14:26:01.604Z,24.40
2018-08-28T14:28:30.859Z,24.20
2018-08-28T14:31:00.233Z,23.60
2018-08-28T14:33:29.448Z,22.20
2018-08-28T14:35:58.764Z,20.40
2018-08-28T14:38:28.012Z,22.00
2018-08-28T14:40:57.232Z,22.70
2018-08-28T14:43:26.443Z,21.60
2018-08-28T14:45:56.236Z,23.20
2018-08-28T14:48:25.622Z,22.80
2018-08-28T14:50:54.835Z,23.20
2018-08-28T14:53:24.053Z,23.00
2018-08-28T14:55:53.269Z,23.50
2018-08-28T14:58:22.473Z,22.30
2018-08-28T15:00:53.005Z,23.10
2018-08-28T15:03:22.205Z,23.50
2018-08-28T15:05:51.584Z,24.20
2018-08-28T15:08:23.409Z,22.10
2018-08-28T15:10:52.635Z,22.80
2018-08-28T15:13:21.976Z,22.30
2018-08-28T15:15:51.314Z,21.80
2018-08-28T15:18:20.502Z,22.60
2018-08-28T15:20:49.728Z,21.80
2018-08-28T15:23:19.152Z,20.60
2018-08-28T15:25:48.469Z,21.30
2018-08-28T15:28:17.740Z,21.90
2018-08-28T15:30:47.327Z,22.60
2018-08-28T15:33:16.658Z,22.00
2018-08-28T15:35:45.944Z,21.80
2018-08-28T15:38:15.188Z,22.80
2018-08-28T15:40:44.608Z,23.00
2018-08-28T15:43:15.116Z,23.20
2018-08-28T15:45:44.418Z,22.60
2018-08-28T15:48:13.696Z,22.00
2018-08-28T15:50:42.896Z,23.20
2018-08-28T15:53:12.208Z,22.70
2018-08-28T15:55:41.829Z,22.30
2018-08-28T15:58:11.229Z,22.80
2018-08-28T16:00:40.856Z,21.70
2018-08-28T16:03:10.090Z,22.30
2018-08-28T16:05:39.317Z,22.70
2018-08-28T16:08:08.806Z,22.00
2018-08-28T16:10:38.074Z,22.00
2018-08-28T16:13:11.918Z,22.20
2018-08-28T16:15:41.152Z,22.30
2018-08-28T16:18:10.450Z,22.40
2018-08-28T16:20:39.884Z,21.60
2018-08-28T16:23:13.292Z,22.20
2018-08-28T16:25:42.595Z,22.10
2018-08-28T16:28:11.800Z,22.80
2018-08-28T16:30:42.245Z,22.40
2018-08-28T16:33:11.553Z,22.60
2018-08-28T16:35:40.796Z,22.40
2018-08-28T16:38:09.988Z,22.30
2018-08-28T16:40:39.221Z,22.70
2018-08-28T16:43:08.473Z,22.80
2018-08-28T16:45:38.975Z,22.90
2018-08-28T16:48:08.240Z,23.40
2018-08-28T16:50:37.497Z,23.10
2018-08-28T16:53:06.700Z,23.20
2018-08-28T16:55:36.203Z,23.00
2018-08-28T16:58:05.485Z,23.20
2018-08-28T17:00:34.764Z,23.60
2018-08-28T17:03:04.759Z,23.70
2018-08-28T17:05:34.922Z,23.90
2018-08-28T17:08:04.125Z,24.20
2018-08-28T17:10:33.419Z,24.10
2018-08-28T17:13:02.619Z,24.40
2018-08-28T17:15:31.925Z,24.60
2018-08-28T17:18:01.314Z,24.60
2018-08-28T17:20:30.540Z,24.50
2018-08-28T17:23:00.936Z,25.20
2018-08-28T17:25:30.332Z,25.10
2018-08-28T17:27:59.692Z,25.90
2018-08-28T17:30:28.940Z,26.30
2018-08-28T17:32:58.219Z,26.40
2018-08-28T17:35:27.480Z,26.50
2018-08-28T17:37:56.672Z,26.70
2018-08-28T17:40:25.944Z,27.40
2018-08-28T17:42:55.153Z,27.40
2018-08-28T17:45:24.404Z,28.20
2018-08-28T17:47:53.709Z,27.80
2018-08-28T17:50:22.892Z,28.00
2018-08-28T17:52:52.120Z,28.30
2018-08-28T17:55:21.361Z,27.90
2018-08-28T17:57:50.603Z,27.90
2018-08-28T18:00:19.864Z,28.40
2018-08-28T18:02:49.184Z,28.30
2018-08-28T18:05:18.773Z,28.50
2018-08-28T18:07:48.016Z,28.70
2018-08-28T18:10:17.252Z,28.90
2018-08-28T18:12:46.465Z,29.20
2018-08-28T18:15:15.961Z,29.70
2018-08-28T18:17:45.195Z,29.40
2018-08-28T18:20:14.405Z,29.50
2018-08-28T18:22:43.613Z,29.50
2018-08-28T18:25:13.229Z,29.80
2018-08-28T18:27:42.463Z,30.10
2018-08-28T18:30:11.682Z,30.10
2018-08-28T18:32:40.947Z,30.10
2018-08-28T18:35:11.288Z,30.40
2018-08-28T18:37:40.488Z,31.00
2018-08-28T18:40:09.797Z,30.50
2018-08-28T18:42:39.004Z,30.60
2018-08-28T18:45:08.448Z,30.90
2018-08-28T18:47:38.160Z,31.00
2018-08-28T18:50:09.606Z,31.00
2018-08-28T18:52:38.897Z,31.20
2018-08-28T18:55:08.108Z,31.60
2018-08-28T18:57:37.315Z,31.90
2018-08-28T19:00:06.632Z,32.10
2018-08-28T19:02:35.848Z,31.80
2018-08-28T19:05:05.076Z,31.70
2018-08-28T19:07:35.236Z,32.10
2018-08-28T19:10:04.664Z,32.40
2018-08-28T19:12:33.940Z,33.40
2018-08-28T19:15:03.216Z,32.70
2018-08-28T19:17:32.436Z,33.80
2018-08-28T19:20:01.652Z,33.60
2018-08-28T19:22:30.900Z,33.20
2018-08-28T19:25:00.112Z,33.20
2018-08-28T19:27:29.332Z,33.40
2018-08-28T19:29:58.636Z,33.30
2018-08-28T19:32:27.859Z,34.00
2018-08-28T19:34:57.088Z,34.10
2018-08-28T19:37:27.232Z,34.60
2018-08-28T19:39:56.544Z,34.00
2018-08-28T19:42:25.772Z,34.10
2018-08-28T19:44:55.024Z,34.30
2018-08-28T19:47:24.288Z,34.90
2018-08-28T19:49:53.766Z,34.50
2018-08-28T19:52:23.073Z,35.50
2018-08-28T19:54:52.313Z,35.60
2018-08-28T19:57:21.526Z,35.20
2018-08-28T19:59:50.742Z,35.10
2018-08-28T20:02:20.296Z,35.30
2018-08-28T20:04:49.556Z,35.30
2018-08-28T20:07:18.789Z,35.50
2018-08-28T20:09:48.420Z,35.60
2018-08-28T20:12:17.633Z,36.00
2018-08-28T20:14:47.064Z,36.20
2018-08-28T20:17:16.291Z,35.90
2018-08-28T20:19:45.488Z,35.70
2018-08-28T20:22:14.704Z,36.30
2018-08-28T20:24:43.908Z,36.40
2018-08-28T20:27:13.130Z,37.20
2018-08-28T20:29:42.404Z,37.90
2018-08-28T20:32:11.602Z,37.40
2018-08-28T20:34:40.823Z,40.20
2018-08-28T20:37:10.401Z,40.60
2018-08-28T20:39:39.558Z,39.90
2018-08-28T20:42:08.776Z,39.70
2018-08-28T20:44:38.000Z,39.70
2018-08-28T20:47:07.234Z,39.40
2018-08-28T20:49:36.441Z,39.20
2018-08-28T20:52:06.085Z,39.50
2018-08-28T20:54:35.289Z,39.20
2018-08-28T20:57:04.534Z,39.10
2018-08-28T20:59:33.876Z,39.00
2018-08-28T21:02:03.184Z,39.30
2018-08-28T21:04:32.438Z,39.70
2018-08-28T21:07:01.684Z,40.00
2018-08-28T21:09:30.888Z,40.10
2018-08-28T21:12:00.492Z,39.70
2018-08-28T21:14:29.784Z,39.70
2018-08-28T21:16:59.021Z,39.80
2018-08-28T21:19:28.220Z,39.80
2018-08-28T21:21:57.512Z,39.50
2018-08-28T21:24:26.713Z,40.40
2018-08-28T21:26:56.113Z,40.60
2018-08-28T21:29:25.406Z,40.50
2018-08-28T21:31:54.567Z,40.20
2018-08-28T21:34:23.788Z,40.00
2018-08-28T21:36:53.020Z,40.90
2018-08-28T21:39:22.232Z,42.50
2018-08-28T21:41:51.442Z,43.00
2018-08-28T21:44:21.008Z,41.70
2018-08-28T21:46:50.216Z,44.10
2018-08-28T21:49:19.453Z,43.80
2018-08-28T21:51:48.693Z,43.80
2018-08-28T21:54:17.892Z,42.50
2018-08-28T21:56:47.104Z,43.40
2018-08-28T21:59:16.328Z,43.90
2018-08-28T22:01:45.559Z,43.20
2018-08-28T22:04:14.761Z,43.60
2018-08-28T22:06:49.747Z,45.40
2018-08-28T22:09:18.915Z,44.80
2018-08-28T22:11:48.123Z,45.60
2018-08-28T22:14:17.809Z,45.40
2018-08-28T22:16:47.033Z,44.00
2018-08-28T22:19:16.376Z,43.80
2018-08-28T22:21:45.656Z,44.50
2018-08-28T22:24:14.940Z,45.90
2018-08-28T22:26:44.143Z,45.10
2018-08-28T22:29:13.577Z,45.70
2018-08-28T22:31:42.795Z,45.20
2018-08-28T22:34:11.992Z,44.60
2018-08-28T22:36:41.232Z,44.90
2018-08-28T22:39:10.464Z,45.00
2018-08-28T22:41:39.808Z,45.80
2018-08-28T22:44:09.297Z,45.40
2018-08-28T22:46:38.521Z,45.50
2018-08-28T22:49:07.812Z,45.20
2018-08-28T22:51:37.121Z,46.10
2018-08-28T22:54:06.391Z,47.30
2018-08-28T22:56:35.572Z,46.90
2018-08-28T22:59:05.701Z,46.80
2018-08-28T23:01:34.928Z,46.50
2018-08-28T23:04:04.220Z,46.70
2018-08-28T23:06:33.449Z,46.40
2018-08-28T23:09:02.716Z,46.50
2018-08-28T23:11:31.928Z,47.40
2018-08-28T23:14:01.232Z,46.40
2018-08-28T23:16:30.574Z,46.30
2018-08-28T23:18:59.852Z,46.40
2018-08-28T23:21:31.348Z,47.00
2018-08-28T23:24:00.576Z,47.50
2018-08-28T23:26:29.774Z,48.70
2018-08-28T23:28:58.995Z,47.80
2018-08-28T23:31:28.220Z,47.60
2018-08-28T23:33:57.420Z,47.80
2018-08-28T23:36:26.744Z,47.90
2018-08-28T23:38:55.952Z,49.70
2018-08-28T23:41:25.660Z,48.30
2018-08-28T23:43:54.928Z,48.30
2018-08-28T23:46:32.756Z,48.30
2018-08-28T23:49:02.172Z,48.80
2018-08-28T23:51:31.393Z,49.50
2018-08-28T23:54:06.617Z,49.10
2018-08-28T23:56:36.016Z,48.30
2018-08-28T23:59:05.300Z,48.20
